createdAt,value
2018-06-12T00:01:11.742Z,28.43
2018-06-12T00:03:41.205Z,26.33
2018-06-12T00:19:05.557Z,29.10
2018-06-12T00:21:35.470Z,27.47
2018-06-12T00:24:05.529Z,26.97
2018-06-12T00:26:35.420Z,27.57
2018-06-12T00:29:05.742Z,26.97
2018-06-12T00:31:35.802Z,27.00
2018-06-12T00:34:05.889Z,28.37
2018-06-12T00:36:35.696Z,27.00
2018-06-12T00:39:07.989Z,26.63
2018-06-12T00:41:37.905Z,27.60
2018-06-12T00:44:07.587Z,28.97
2018-06-12T00:46:37.350Z,29.77
2018-06-12T00:49:07.120Z,28.00
2018-06-12T00:51:36.960Z,27.50
2018-06-12T00:54:06.730Z,27.93
2018-06-12T00:56:47.622Z,27.70
2018-06-12T00:59:17.112Z,27.87
2018-06-12T01:01:47.335Z,26.93
2018-06-12T01:04:16.780Z,25.40
2018-06-12T01:06:46.526Z,27.53
2018-06-12T01:09:16.263Z,27.00
2018-06-12T01:11:45.957Z,28.17
2018-06-12T01:14:15.827Z,28.37
2018-06-12T01:16:45.519Z,27.77
2018-06-12T01:19:16.103Z,27.47
2018-06-12T01:21:45.523Z,27.27
2018-06-12T01:24:15.815Z,27.17
2018-06-12T01:26:46.162Z,27.77
2018-06-12T01:29:15.883Z,28.53
2018-06-12T01:31:45.669Z,27.73
2018-06-12T01:34:15.299Z,26.13
2018-06-12T01:36:44.958Z,25.70
2018-06-12T01:39:14.749Z,25.33
2018-06-12T01:41:44.570Z,28.67
2018-06-12T01:44:14.519Z,24.40
2018-06-12T01:46:44.011Z,25.73
2018-06-12T01:49:13.808Z,24.47
2018-06-12T01:51:43.611Z,26.37
2018-06-12T01:54:13.054Z,28.00
2018-06-12T01:56:42.804Z,28.90
2018-06-12T01:59:12.491Z,27.77
2018-06-12T02:01:42.300Z,29.07
2018-06-12T02:04:12.020Z,27.83
2018-06-12T02:06:41.916Z,27.37
2018-06-12T02:09:11.869Z,27.23
2018-06-12T02:11:41.575Z,29.07
2018-06-12T02:14:11.262Z,27.30
2018-06-12T02:16:41.011Z,27.33
2018-06-12T02:19:10.865Z,27.57
2018-06-12T02:21:40.751Z,28.10
2018-06-12T02:24:10.533Z,28.57
2018-06-12T02:26:40.232Z,27.97
2018-06-12T02:29:09.970Z,28.13
2018-06-12T02:31:39.542Z,27.63
2018-06-12T02:34:09.334Z,28.23
2018-06-12T02:36:39.092Z,28.67
2018-06-12T02:39:09.111Z,29.57
2018-06-12T02:41:38.703Z,30.13
2018-06-12T02:44:08.394Z,30.53
2018-06-12T02:46:38.308Z,30.73
2018-06-12T02:49:07.998Z,31.07
2018-06-12T02:51:37.811Z,32.73
2018-06-12T02:54:07.298Z,33.83
2018-06-12T02:56:36.895Z,36.67
2018-06-12T02:59:06.658Z,38.60
2018-06-12T03:01:36.419Z,32.77
2018-06-12T03:04:05.877Z,33.43
2018-06-12T03:06:35.644Z,33.77
2018-06-12T03:09:08.574Z,37.77
2018-06-12T03:11:38.142Z,34.23
2018-06-12T03:14:07.824Z,36.43
2018-06-12T03:16:37.745Z,36.50
2018-06-12T03:19:07.593Z,38.60
2018-06-12T03:21:37.361Z,36.57
2018-06-12T03:24:07.459Z,32.13
2018-06-12T03:26:37.218Z,30.40
2018-06-12T03:29:06.923Z,30.37
2018-06-12T03:31:36.704Z,29.37
2018-06-12T03:34:06.591Z,32.60
2018-06-12T03:36:36.293Z,32.47
2018-06-12T03:39:07.747Z,32.53
2018-06-12T03:41:37.441Z,38.50
2018-06-12T03:44:07.191Z,35.80
2018-06-12T03:46:36.958Z,41.03
2018-06-12T03:49:06.723Z,44.73
2018-06-12T03:51:36.480Z,43.13
2018-06-12T03:54:06.180Z,42.67
2018-06-12T03:56:35.879Z,41.77
2018-06-12T03:59:05.841Z,45.53
2018-06-12T04:01:35.790Z,45.67
2018-06-12T04:04:05.499Z,48.43
2018-06-12T04:06:37.487Z,67.13
2018-06-12T04:09:08.634Z,66.57
2018-06-12T04:11:38.378Z,54.97
2018-06-12T04:14:08.108Z,48.43
2018-06-12T04:16:38.019Z,50.43
2018-06-12T04:19:08.203Z,49.27
2018-06-12T04:21:44.057Z,42.33
2018-06-12T04:24:13.875Z,47.10
2018-06-12T04:26:43.279Z,49.77
2018-06-12T04:29:13.196Z,54.97
2018-06-12T04:31:42.890Z,45.00
2018-06-12T04:34:12.733Z,46.60
2018-06-12T04:36:42.428Z,54.27
2018-06-12T04:39:12.244Z,44.43
2018-06-12T04:41:41.715Z,41.43
2018-06-12T04:44:11.509Z,36.13
2018-06-12T04:46:41.522Z,38.03
2018-06-12T04:49:11.221Z,36.80
2018-06-12T04:51:40.948Z,36.07
2018-06-12T04:54:10.380Z,34.70
2018-06-12T04:56:40.090Z,33.20
2018-06-12T04:59:09.612Z,32.90
2018-06-12T05:01:39.902Z,30.53
2018-06-12T05:04:09.604Z,31.77
2018-06-12T05:06:39.602Z,33.57
2018-06-12T05:09:09.392Z,31.10
2018-06-12T05:11:39.106Z,31.53
2018-06-12T05:14:08.667Z,32.07
2018-06-12T05:16:38.776Z,32.67
2018-06-12T05:19:08.631Z,32.03
2018-06-12T05:21:38.475Z,32.00
2018-06-12T05:24:07.973Z,34.70
2018-06-12T05:26:37.799Z,31.23
2018-06-12T05:29:07.327Z,28.83
2018-06-12T05:31:37.210Z,29.20
2018-06-12T05:34:06.974Z,29.23
2018-06-12T05:36:36.774Z,30.93
2018-06-12T05:39:09.707Z,27.20
2018-06-12T05:41:40.000Z,25.73
2018-06-12T05:44:09.741Z,25.10
2018-06-12T05:46:39.565Z,26.30
2018-06-12T05:49:09.310Z,26.60
2018-06-12T05:51:38.836Z,25.70
2018-06-12T05:54:08.808Z,24.30
2018-06-12T05:56:38.660Z,22.70
2018-06-12T05:59:08.488Z,24.13
2018-06-12T06:01:38.318Z,22.23
2018-06-12T06:04:07.940Z,23.87
2018-06-12T06:06:37.692Z,24.60
2018-06-12T06:09:08.399Z,22.17
2018-06-12T06:11:37.980Z,22.17
2018-06-12T06:14:07.854Z,20.90
2018-06-12T06:16:37.842Z,20.90
2018-06-12T06:19:07.556Z,20.83
2018-06-12T06:21:37.333Z,19.30
2018-06-12T06:24:07.235Z,20.83
2018-06-12T06:26:37.006Z,20.17
2018-06-12T06:29:07.095Z,22.77
2018-06-12T06:31:36.951Z,23.77
2018-06-12T06:34:07.440Z,22.93
2018-06-12T06:36:36.983Z,20.43
2018-06-12T06:39:08.254Z,21.63
2018-06-12T06:41:38.027Z,22.10
2018-06-12T06:44:07.828Z,24.37
2018-06-12T06:46:37.571Z,24.40
2018-06-12T06:49:07.408Z,24.27
2018-06-12T06:51:37.460Z,21.20
2018-06-12T06:54:07.289Z,19.80
2018-06-12T06:56:37.043Z,22.67
2018-06-12T06:59:06.819Z,18.37
2018-06-12T07:01:40.922Z,19.73
2018-06-12T07:04:10.706Z,18.33
2018-06-12T07:06:40.491Z,19.73
2018-06-12T07:09:10.216Z,19.50
2018-06-12T07:11:40.015Z,17.67
2018-06-12T07:14:09.729Z,16.57
2018-06-12T07:16:39.583Z,16.07
2018-06-12T07:19:09.358Z,18.07
2018-06-12T07:21:38.774Z,18.43
2018-06-12T07:24:08.486Z,21.43
2018-06-12T07:26:37.995Z,20.40
2018-06-12T07:29:07.750Z,18.47
2018-06-12T07:31:37.954Z,20.17
2018-06-12T07:34:07.458Z,19.10
2018-06-12T07:36:37.177Z,18.90
2018-06-12T07:39:08.786Z,18.30
2018-06-12T07:41:38.607Z,16.13
2018-06-12T07:44:08.351Z,19.07
2018-06-12T07:46:38.059Z,15.20
2018-06-12T07:49:08.113Z,16.13
2018-06-12T07:51:37.806Z,15.93
2018-06-12T07:54:07.596Z,16.17
2018-06-12T07:56:37.553Z,14.43
2018-06-12T07:59:07.296Z,15.20
2018-06-12T08:01:37.030Z,13.67
2018-06-12T08:04:06.785Z,16.30
2018-06-12T08:06:36.476Z,14.20
2018-06-12T08:09:07.882Z,15.73
2018-06-12T08:11:37.690Z,15.53
2018-06-12T08:14:07.370Z,13.43
2018-06-12T08:16:37.108Z,13.57
2018-06-12T08:19:06.821Z,12.70
2018-06-12T08:21:36.703Z,11.83
2018-06-12T08:24:06.476Z,10.97
2018-06-12T08:26:36.185Z,12.27
2018-06-12T08:29:06.098Z,12.90
2018-06-12T08:31:35.982Z,12.13
2018-06-12T08:34:05.906Z,11.90
2018-06-12T08:36:35.654Z,10.87
2018-06-12T08:39:07.382Z,11.60
2018-06-12T08:41:37.255Z,11.43
2018-06-12T08:44:07.028Z,11.63
2018-06-12T08:46:36.746Z,13.03
2018-06-12T08:49:06.981Z,12.00
2018-06-12T08:51:37.273Z,11.15
2018-06-12T08:54:07.682Z,130.57
2018-06-12T08:56:38.356Z,99.47
2018-06-12T08:59:08.839Z,70.52
2018-06-12T09:01:39.158Z,44.60
2018-06-12T09:04:09.620Z,45.03
2018-06-12T09:06:40.007Z,11.88
2018-06-12T09:09:10.337Z,11.28
2018-06-12T09:11:40.627Z,9.68
2018-06-12T09:14:11.267Z,9.73
2018-06-12T09:16:41.625Z,7.97
2018-06-12T09:19:12.259Z,26.45
2018-06-12T09:21:42.583Z,10.65
2018-06-12T09:24:12.953Z,8.05
2018-06-12T09:26:43.231Z,7.62
2018-06-12T09:29:13.607Z,8.13
2018-06-12T09:31:44.427Z,8.18
2018-06-12T09:34:14.763Z,46.02
2018-06-12T09:36:45.034Z,8.18
2018-06-12T09:39:15.423Z,8.10
2018-06-12T09:41:45.718Z,7.58
2018-06-12T09:44:16.028Z,6.95
2018-06-12T09:46:46.298Z,8.55
2018-06-12T09:49:17.261Z,9.90
2018-06-12T09:51:47.555Z,11.65
2018-06-12T09:54:17.872Z,9.83
2018-06-12T09:56:48.166Z,8.48
2018-06-12T09:59:18.473Z,9.83
2018-06-12T10:01:49.700Z,9.98
2018-06-12T10:04:20.593Z,35.85
2018-06-12T10:06:50.980Z,19.07
2018-06-12T10:09:21.064Z,8.65
2018-06-12T10:11:51.368Z,7.55
2018-06-12T10:14:22.416Z,8.13
2018-06-12T10:16:52.869Z,7.60
2018-06-12T10:19:23.417Z,6.90
2018-06-12T10:21:54.888Z,12.25
2018-06-12T10:24:25.222Z,7.33
2018-06-12T10:26:55.469Z,7.53
2018-06-12T10:29:25.747Z,7.55
2018-06-12T10:31:56.122Z,8.15
2018-06-12T10:34:26.516Z,7.30
2018-06-12T10:36:58.587Z,7.75
2018-06-12T10:39:28.984Z,7.62
2018-06-12T10:41:59.525Z,6.53
2018-06-12T10:44:29.816Z,7.40
2018-06-12T10:47:00.485Z,7.28
2018-06-12T10:49:30.755Z,10.60
2018-06-12T10:52:01.176Z,7.33
2018-06-12T10:54:31.557Z,7.97
2018-06-12T10:57:02.500Z,8.00
2018-06-12T10:59:32.839Z,8.00
2018-06-12T11:02:03.158Z,7.45
2018-06-12T11:04:33.973Z,8.75
2018-06-12T11:07:04.415Z,6.53
2018-06-12T11:09:34.779Z,7.12
2018-06-12T11:12:05.091Z,6.83
2018-06-12T11:14:36.079Z,6.12
2018-06-12T11:17:06.816Z,6.35
2018-06-12T11:19:37.203Z,5.65
2018-06-12T11:22:07.588Z,7.05
2018-06-12T11:24:37.947Z,6.53
2018-06-12T11:27:08.376Z,6.62
2018-06-12T11:29:38.837Z,6.75
2018-06-12T11:32:09.191Z,6.97
2018-06-12T11:34:39.585Z,7.30
2018-06-12T11:37:09.950Z,8.60
2018-06-12T11:39:40.263Z,6.90
2018-06-12T11:42:10.546Z,7.78
2018-06-12T11:44:40.808Z,40.90
2018-06-12T11:47:17.798Z,9.28
2018-06-12T11:49:48.187Z,8.00
2018-06-12T11:52:18.595Z,7.17
2018-06-12T11:54:48.962Z,9.70
2018-06-12T11:57:19.490Z,8.50
2018-06-12T11:59:49.828Z,8.65
2018-06-12T12:02:20.150Z,7.67
2018-06-12T12:04:50.654Z,9.40
2018-06-12T12:07:20.676Z,9.33
2018-06-12T12:09:51.778Z,8.25
2018-06-12T12:12:22.171Z,6.37
2018-06-12T12:14:52.714Z,5.60
2018-06-12T12:17:23.028Z,5.00
2018-06-12T12:19:53.366Z,6.28
2018-06-12T12:22:23.822Z,4.20
2018-06-12T12:24:54.231Z,5.60
2018-06-12T12:27:24.642Z,5.70
2018-06-12T12:29:55.031Z,5.47
2018-06-12T12:32:25.438Z,4.20
2018-06-12T12:34:55.967Z,4.78
2018-06-12T12:37:26.217Z,4.62
2018-06-12T12:39:57.096Z,4.45
2018-06-12T12:42:27.528Z,5.62
2018-06-12T12:44:58.398Z,6.85
2018-06-12T12:47:28.854Z,4.37
2018-06-12T12:49:59.146Z,5.37
2018-06-12T12:52:29.465Z,5.25
2018-06-12T12:54:59.817Z,8.15
2018-06-12T12:57:30.110Z,7.03
2018-06-12T13:00:00.602Z,4.55
2018-06-12T13:02:31.143Z,6.53
2018-06-12T13:05:01.512Z,6.37
2018-06-12T13:07:31.987Z,4.70
2018-06-12T13:10:02.245Z,7.03
2018-06-12T13:12:32.555Z,6.03
2018-06-12T13:15:02.891Z,6.08
2018-06-12T13:17:33.146Z,7.05
2018-06-12T13:20:04.017Z,6.15
2018-06-12T13:22:34.346Z,4.75
2018-06-12T13:25:04.133Z,9.07
2018-06-12T13:27:33.826Z,5.87
2018-06-12T13:30:03.605Z,5.13
2018-06-12T13:32:33.906Z,5.33
2018-06-12T13:35:03.644Z,5.57
2018-06-12T13:37:33.575Z,4.40
2018-06-12T13:40:03.258Z,5.37
2018-06-12T13:42:32.921Z,4.57
2018-06-12T13:45:02.808Z,4.60
2018-06-12T13:47:32.609Z,4.83
2018-06-12T13:50:03.106Z,6.25
2018-06-12T13:52:33.395Z,4.25
2018-06-12T13:55:03.678Z,4.37
2018-06-12T13:57:33.422Z,7.17
2018-06-12T14:00:03.448Z,5.53
2018-06-12T14:02:33.305Z,5.83
2018-06-12T14:05:03.559Z,4.17
2018-06-12T14:07:33.951Z,5.70
2018-06-12T14:10:04.311Z,4.42
2018-06-12T14:12:34.568Z,4.87
2018-06-12T14:15:05.244Z,5.08
2018-06-12T14:17:35.524Z,3.83
2018-06-12T14:20:06.012Z,4.72
2018-06-12T14:22:36.404Z,4.00
2018-06-12T14:25:06.285Z,5.60
2018-06-12T14:27:36.163Z,5.72
2018-06-12T14:30:06.444Z,4.10
2018-06-12T14:32:36.819Z,4.75
2018-06-12T14:35:06.604Z,5.33
2018-06-12T14:37:36.384Z,5.80
2018-06-12T14:40:06.450Z,3.98
2018-06-12T14:42:36.266Z,6.10
2018-06-12T14:45:06.299Z,4.63
2018-06-12T14:47:36.864Z,6.13
2018-06-12T14:50:07.183Z,6.00
2018-06-12T14:52:36.967Z,5.50
2018-06-12T14:55:06.691Z,5.43
2018-06-12T14:57:36.482Z,6.90
2018-06-12T15:00:06.008Z,5.97
2018-06-12T15:02:35.754Z,5.83
2018-06-12T15:05:05.937Z,4.73
2018-06-12T15:07:36.390Z,4.53
2018-06-12T15:10:06.499Z,4.20
2018-06-12T15:12:36.905Z,6.35
2018-06-12T15:15:07.217Z,5.65
2018-06-12T15:17:37.005Z,6.00
2018-06-12T15:20:07.640Z,4.40
2018-06-12T15:22:38.044Z,4.72
2018-06-12T15:25:08.507Z,4.55
2018-06-12T15:27:38.982Z,4.60
2018-06-12T15:30:09.320Z,4.60
2018-06-12T15:32:39.667Z,6.75
2018-06-12T15:35:10.841Z,5.30
2018-06-12T15:37:41.140Z,4.95
2018-06-12T15:40:11.526Z,4.62
2018-06-12T15:42:41.881Z,5.85
2018-06-12T15:45:12.334Z,4.37
2018-06-12T15:47:42.805Z,6.20
2018-06-12T15:50:13.794Z,5.17
2018-06-12T15:52:44.110Z,5.30
2018-06-12T15:55:14.494Z,5.47
2018-06-12T15:57:44.264Z,6.73
2018-06-12T16:00:14.036Z,6.83
2018-06-12T16:02:43.886Z,5.60
2018-06-12T16:05:13.637Z,5.10
2018-06-12T16:07:43.436Z,8.13
2018-06-12T16:10:14.100Z,7.72
2018-06-12T16:12:43.899Z,4.90
2018-06-12T16:15:14.107Z,6.20
2018-06-12T16:17:43.946Z,5.63
2018-06-12T16:20:14.727Z,4.73
2018-06-12T16:22:44.497Z,5.60
2018-06-12T16:25:14.315Z,4.50
2018-06-12T16:27:44.211Z,4.90
2018-06-12T16:30:14.600Z,6.00
2018-06-12T16:32:44.363Z,6.07
2018-06-12T16:35:14.084Z,6.43
2018-06-12T16:37:43.800Z,5.83
2018-06-12T16:40:13.701Z,4.57
2018-06-12T16:42:43.467Z,5.00
2018-06-12T16:45:13.305Z,4.70
2018-06-12T16:47:43.041Z,5.30
2018-06-12T16:50:12.776Z,5.30
2018-06-12T16:52:42.593Z,5.57
2018-06-12T16:55:12.330Z,4.67
2018-06-12T16:57:42.136Z,5.30
2018-06-12T17:00:11.862Z,4.17
2018-06-12T17:02:41.673Z,4.07
2018-06-12T17:05:11.395Z,3.73
2018-06-12T17:07:41.903Z,13.40
2018-06-12T17:10:11.811Z,6.73
2018-06-12T17:12:41.576Z,5.47
2018-06-12T17:15:11.343Z,4.67
2018-06-12T17:17:41.644Z,4.87
2018-06-12T17:20:11.332Z,3.97
2018-06-12T17:22:41.098Z,3.80
2018-06-12T17:25:11.243Z,5.43
2018-06-12T17:27:40.938Z,4.90
2018-06-12T17:30:10.907Z,3.90
2018-06-12T17:32:40.677Z,4.53
2018-06-12T17:35:10.366Z,4.10
2018-06-12T17:37:39.871Z,4.97
2018-06-12T17:40:09.607Z,5.13
2018-06-12T17:42:39.376Z,4.20
2018-06-12T17:45:09.130Z,5.87
2018-06-12T17:47:38.846Z,4.73
2018-06-12T17:50:09.166Z,4.23
2018-06-12T17:52:38.974Z,4.57
2018-06-12T17:55:09.739Z,4.07
2018-06-12T17:57:39.866Z,5.93
2018-06-12T18:00:09.566Z,5.17
2018-06-12T18:02:39.291Z,4.17
2018-06-12T18:05:09.108Z,4.40
2018-06-12T18:07:39.081Z,4.90
2018-06-12T18:10:08.757Z,4.77
2018-06-12T18:12:38.492Z,5.80
2018-06-12T18:15:08.248Z,4.20
2018-06-12T18:17:38.279Z,4.73
2018-06-12T18:20:07.970Z,5.23
2018-06-12T18:22:37.679Z,4.33
2018-06-12T18:25:08.251Z,6.60
2018-06-12T18:27:38.494Z,4.73
2018-06-12T18:30:08.234Z,4.63
2018-06-12T18:32:38.029Z,5.10
2018-06-12T18:35:08.148Z,5.50
2018-06-12T18:37:37.853Z,5.87
2018-06-12T18:40:07.721Z,7.13
2018-06-12T18:42:37.556Z,6.13
2018-06-12T18:45:07.343Z,5.23
2018-06-12T18:47:37.042Z,5.20
2018-06-12T18:50:06.855Z,5.07
2018-06-12T18:52:36.652Z,7.83
2018-06-12T18:55:06.535Z,6.87
2018-06-12T18:57:36.215Z,6.47
2018-06-12T19:00:06.316Z,6.13
2018-06-12T19:02:36.010Z,6.27
2018-06-12T19:05:05.806Z,10.47
2018-06-12T19:07:35.604Z,10.80
2018-06-12T19:10:05.366Z,12.53
2018-06-12T19:12:35.105Z,8.17
2018-06-12T19:15:05.348Z,9.47
2018-06-12T19:17:35.139Z,8.53
2018-06-12T19:20:04.919Z,7.23
2018-06-12T19:22:34.662Z,8.53
2018-06-12T19:25:04.984Z,10.00
2018-06-12T19:27:34.808Z,6.67
2018-06-12T19:30:05.904Z,8.17
2018-06-12T19:32:35.691Z,8.60
2018-06-12T19:35:05.499Z,6.90
2018-06-12T19:37:34.933Z,7.50
2018-06-12T19:40:04.812Z,7.10
2018-06-12T19:42:35.454Z,9.73
2018-06-12T19:45:05.588Z,7.77
2018-06-12T19:47:35.668Z,7.17
2018-06-12T19:50:05.857Z,8.70
2018-06-12T19:52:35.396Z,8.17
2018-06-12T19:55:05.183Z,8.13
2018-06-12T19:57:37.184Z,9.13
2018-06-12T20:00:07.095Z,9.50
2018-06-12T20:02:36.863Z,11.50
2018-06-12T20:05:06.723Z,10.30
2018-06-12T20:07:36.527Z,11.33
2018-06-12T20:10:06.264Z,20.90
2018-06-12T20:12:36.021Z,32.80
2018-06-12T20:15:05.978Z,51.53
2018-06-12T20:17:35.770Z,68.47
2018-06-12T20:20:05.560Z,61.37
2018-06-12T20:22:36.319Z,90.67
2018-06-12T20:25:06.287Z,228.20
2018-06-12T20:27:36.742Z,445.97
2018-06-12T20:30:06.474Z,641.03
2018-06-12T20:32:36.263Z,853.73
2018-06-12T20:35:06.442Z,1046.30
2018-06-12T20:37:36.063Z,1197.40
2018-06-12T20:40:05.964Z,1381.03
2018-06-12T20:42:35.713Z,1999.90
2018-06-12T20:45:05.705Z,1999.90
2018-06-12T20:47:35.649Z,1999.90
2018-06-12T20:50:06.462Z,1999.90
2018-06-12T20:52:36.299Z,1999.90
2018-06-12T20:55:06.742Z,1999.90
2018-06-12T20:57:36.488Z,1999.90
2018-06-12T21:00:06.280Z,1877.43
2018-06-12T21:02:35.732Z,1999.90
2018-06-12T21:05:06.110Z,1999.90
2018-06-12T21:07:35.857Z,1999.90
2018-06-12T21:10:05.879Z,1999.90
2018-06-12T21:12:36.450Z,1999.90
2018-06-12T21:15:06.195Z,1999.90
2018-06-12T21:17:35.989Z,1999.90
2018-06-12T21:20:05.727Z,1999.90
2018-06-12T21:22:35.601Z,1999.90
2018-06-12T21:25:05.623Z,1999.90
2018-06-12T21:27:35.699Z,1999.90
2018-06-12T21:30:05.492Z,1999.90
2018-06-12T21:32:35.265Z,1556.57
2018-06-12T21:35:05.039Z,1552.97
2018-06-12T21:37:34.784Z,1251.50
2018-06-12T21:40:04.308Z,1058.60
2018-06-12T21:42:34.207Z,797.53
2018-06-12T21:45:04.348Z,473.37
2018-06-12T21:47:34.204Z,184.10
2018-06-12T21:50:03.980Z,180.80
2018-06-12T21:52:33.496Z,121.57
2018-06-12T21:55:03.365Z,41.07
2018-06-12T21:57:33.590Z,23.77
2018-06-12T22:00:03.366Z,28.50
2018-06-12T22:02:32.866Z,22.10
2018-06-12T22:05:02.476Z,22.93
2018-06-12T22:07:32.822Z,20.07
2018-06-12T22:10:02.711Z,22.43
2018-06-12T22:12:32.588Z,16.17
2018-06-12T22:15:02.343Z,20.40
2018-06-12T22:17:32.227Z,23.17
2018-06-12T22:20:01.998Z,18.90
2018-06-12T22:22:31.794Z,18.67
2018-06-12T22:25:01.246Z,17.03
2018-06-12T22:27:31.090Z,19.87
2018-06-12T22:30:00.847Z,19.67
2018-06-12T22:32:30.310Z,17.13
2018-06-12T22:35:00.050Z,19.30
2018-06-12T22:37:29.784Z,24.93
2018-06-12T22:39:59.590Z,23.17
2018-06-12T22:42:29.470Z,34.27
2018-06-12T22:44:59.298Z,47.77
2018-06-12T22:47:29.029Z,38.83
2018-06-12T22:49:58.875Z,58.07
2018-06-12T22:52:29.047Z,38.57
2018-06-12T22:54:58.783Z,40.80
2018-06-12T22:57:28.612Z,39.90
2018-06-12T22:59:58.341Z,63.40
2018-06-12T23:02:28.157Z,124.33
2018-06-12T23:04:57.645Z,54.80
2018-06-12T23:07:27.395Z,81.73
2018-06-12T23:09:57.185Z,93.97
2018-06-12T23:12:26.696Z,86.17
2018-06-12T23:14:56.469Z,53.10
2018-06-12T23:17:26.227Z,74.83
2018-06-12T23:20:07.300Z,117.23
2018-06-12T23:22:37.216Z,79.67
2018-06-12T23:25:06.725Z,73.57
2018-06-12T23:27:36.410Z,72.80
2018-06-12T23:30:06.134Z,67.13
2018-06-12T23:32:35.590Z,58.43
2018-06-12T23:35:05.444Z,34.97
2018-06-12T23:37:35.229Z,28.10
2018-06-12T23:40:04.927Z,27.70
2018-06-12T23:42:35.098Z,22.53
2018-06-12T23:45:04.888Z,16.87
2018-06-12T23:47:34.430Z,18.20
2018-06-12T23:50:04.175Z,16.63
2018-06-12T23:52:34.089Z,37.13
2018-06-12T23:55:03.834Z,35.07
2018-06-12T23:57:33.591Z,42.47
